sensor_id;sensor_type;location;lat;lon;timestamp;P1;durP1;ratioP1;P2;durP2;ratioP2
934;SDS011;454;53.254;10.400;2023-02-26T05:02:56;0.70;;;0.70;;
934;SDS011;454;53.254;10.400;2023-02-26T05:05:22;0.10;;;0.10;;
934;SDS011;454;53.254;10.400;2023-02-26T05:07:49;1.42;;;1.40;;
934;SDS011;454;53.254;10.400;2023-02-26T05:10:19;0.30;;;0.30;;
934;SDS011;454;53.254;10.400;2023-02-26T05:12:46;1.05;;;1.05;;
934;SDS011;454;53.254;10.400;2023-02-26T05:15:13;0.43;;;0.43;;
934;SDS011;454;53.254;10.400;2023-02-26T05:17:41;1.17;;;0.63;;
934;SDS011;454;53.254;10.400;2023-02-26T05:20:08;0.20;;;0.20;;
934;SDS011;454;53.254;10.400;2023-02-26T05:22:36;0.38;;;0.38;;
934;SDS011;454;53.254;10.400;2023-02-26T05:25:03;0.20;;;0.20;;
934;SDS011;454;53.254;10.400;2023-02-26T05:27:30;0.30;;;0.30;;
934;SDS011;454;53.254;10.400;2023-02-26T05:29:57;0.45;;;0.45;;
934;SDS011;454;53.254;10.400;2023-02-26T05:32:24;0.77;;;0.77;;
934;SDS011;454;53.254;10.400;2023-02-26T05:34:52;0.40;;;0.40;;
934;SDS011;454;53.254;10.400;2023-02-26T05:37:19;0.55;;;0.55;;
934;SDS011;454;53.254;10.400;2023-02-26T05:39:46;0.20;;;0.20;;
934;SDS011;454;53.254;10.400;2023-02-26T05:42:12;1.02;;;1.02;;
934;SDS011;454;53.254;10.400;2023-02-26T05:44:39;1.30;;;1.30;;
934;SDS011;454;53.254;10.400;2023-02-26T05:47:06;0.20;;;0.20;;
934;SDS011;454;53.254;10.400;2023-02-26T05:49:33;3.53;;;3.22;;
934;SDS011;454;53.254;10.400;2023-02-26T05:52:01;4.35;;;1.60;;
934;SDS011;454;53.254;10.400;2023-02-26T05:54:28;1.08;;;1.08;;
934;SDS011;454;53.254;10.400;2023-02-26T05:56:55;0.20;;;0.20;;
934;SDS011;454;53.254;10.400;2023-02-26T05:59:22;0.30;;;0.30;;
934;SDS011;454;53.254;10.400;2023-02-26T06:01:49;0.20;;;0.20;;
934;SDS011;454;53.254;10.400;2023-02-26T06:04:15;0.40;;;0.40;;
934;SDS011;454;53.254;10.400;2023-02-26T06:06:42;0.43;;;0.43;;
934;SDS011;454;53.254;10.400;2023-02-26T06:09:10;3.85;;;3.70;;
934;SDS011;454;53.254;10.400;2023-02-26T06:11:37;0.38;;;0.38;;
934;SDS011;454;53.254;10.400;2023-02-26T06:14:04;0.50;;;0.50;;
934;SDS011;454;53.254;10.400;2023-02-26T06:16:31;0.40;;;0.40;;
934;SDS011;454;53.254;10.400;2023-02-26T06:18:59;1.65;;;1.40;;
934;SDS011;454;53.254;10.400;2023-02-26T06:21:26;0.20;;;0.20;;
934;SDS011;454;53.254;10.400;2023-02-26T06:23:53;0.10;;;0.10;;
934;SDS011;454;53.254;10.400;2023-02-26T06:26:21;4.32;;;1.30;;
934;SDS011;454;53.254;10.400;2023-02-26T06:28:48;0.30;;;0.30;;
934;SDS011;454;53.254;10.400;2023-02-26T06:31:14;0.17;;;0.17;;
934;SDS011;454;53.254;10.400;2023-02-26T06:33:41;0.60;;;0.60;;
934;SDS011;454;53.254;10.400;2023-02-26T06:36:08;0.20;;;0.20;;
934;SDS011;454;53.254;10.400;2023-02-26T06:38:35;0.98;;;0.65;;
934;SDS011;454;53.254;10.400;2023-02-26T06:41:01;1.55;;;1.48;;
934;SDS011;454;53.254;10.400;2023-02-26T06:43:30;0.43;;;0.43;;
934;SDS011;454;53.254;10.400;2023-02-26T06:45:57;0.40;;;0.40;;
934;SDS011;454;53.254;10.400;2023-02-26T06:48:24;0.50;;;0.50;;
934;SDS011;454;53.254;10.400;2023-02-26T06:50:51;0.50;;;0.50;;
934;SDS011;454;53.254;10.400;2023-02-26T06:53:18;0.30;;;0.30;;
934;SDS011;454;53.254;10.400;2023-02-26T06:55:48;0.63;;;0.63;;
934;SDS011;454;53.254;10.400;2023-02-26T06:58:16;0.20;;;0.20;;
934;SDS011;454;53.254;10.400;2023-02-26T07:00:44;0.20;;;0.20;;
934;SDS011;454;53.254;10.400;2023-02-26T07:03:12;0.10;;;0.10;;
934;SDS011;454;53.254;10.400;2023-02-26T07:05:40;1.17;;;1.17;;
934;SDS011;454;53.254;10.400;2023-02-26T07:08:07;1.05;;;1.05;;
934;SDS011;454;53.254;10.400;2023-02-26T07:10:34;0.40;;;0.40;;
934;SDS011;454;53.254;10.400;2023-02-26T07:13:02;0.30;;;0.30;;
934;SDS011;454;53.254;10.400;2023-02-26T07:15:29;0.73;;;0.73;;
934;SDS011;454;53.254;10.400;2023-02-26T07:17:57;0.30;;;0.30;;
934;SDS011;454;53.254;10.400;2023-02-26T07:20:25;0.40;;;0.40;;
934;SDS011;454;53.254;10.400;2023-02-26T07:22:52;0.60;;;0.60;;
934;SDS011;454;53.254;10.400;2023-02-26T07:25:19;0.20;;;0.20;;
934;SDS011;454;53.254;10.400;2023-02-26T07:27:46;0.35;;;0.35;;
934;SDS011;454;53.254;10.400;2023-02-26T07:30:12;0.10;;;0.10;;
934;SDS011;454;53.254;10.400;2023-02-26T07:32:39;0.20;;;0.20;;
934;SDS011;454;53.254;10.400;2023-02-26T07:35:08;4.95;;;1.75;;
934;SDS011;454;53.254;10.400;2023-02-26T07:37:35;0.50;;;0.50;;
934;SDS011;454;53.254;10.400;2023-02-26T07:40:03;0.38;;;0.38;;
934;SDS011;454;53.254;10.400;2023-02-26T07:42:30;0.32;;;0.32;;
934;SDS011;454;53.254;10.400;2023-02-26T07:44:57;0.10;;;0.10;;
934;SDS011;454;53.254;10.400;2023-02-26T07:47:24;0.70;;;0.70;;
934;SDS011;454;53.254;10.400;2023-02-26T07:49:51;0.35;;;0.35;;
934;SDS011;454;53.254;10.400;2023-02-26T07:52:19;0.10;;;0.10;;
934;SDS011;454;53.254;10.400;2023-02-26T07:54:45;0.38;;;0.38;;
934;SDS011;454;53.254;10.400;2023-02-26T07:57:12;0.30;;;0.30;;
934;SDS011;454;53.254;10.400;2023-02-26T07:59:39;0.32;;;0.32;;
934;SDS011;454;53.254;10.400;2023-02-26T08:02:06;1.75;;;0.68;;
934;SDS011;454;53.254;10.400;2023-02-26T08:04:33;0.35;;;0.35;;
934;SDS011;454;53.254;10.400;2023-02-26T08:07:00;0.10;;;0.10;;
934;SDS011;454;53.254;10.400;2023-02-26T08:09:28;0.40;;;0.20;;
934;SDS011;454;53.254;10.400;2023-02-26T08:11:55;0.30;;;0.30;;
934;SDS011;454;53.254;10.400;2023-02-26T08:14:22;0.20;;;0.20;;
934;SDS011;454;53.254;10.400;2023-02-26T08:16:49;1.02;;;1.02;;
934;SDS011;454;53.254;10.400;2023-02-26T08:19:17;0.45;;;0.45;;
934;SDS011;454;53.254;10.400;2023-02-26T08:21:44;0.60;;;0.30;;
934;SDS011;454;53.254;10.400;2023-02-26T08:24:11;0.25;;;0.25;;
934;SDS011;454;53.254;10.400;2023-02-26T08:26:39;0.20;;;0.20;;
934;SDS011;454;53.254;10.400;2023-02-26T08:29:06;2.63;;;0.52;;
934;SDS011;454;53.254;10.400;2023-02-26T08:31:33;0.52;;;0.30;;
934;SDS011;454;53.254;10.400;2023-02-26T08:34:00;0.20;;;0.20;;
934;SDS011;454;53.254;10.400;2023-02-26T08:36:28;0.40;;;0.38;;
934;SDS011;454;53.254;10.400;2023-02-26T08:38:55;0.30;;;0.30;;
934;SDS011;454;53.254;10.400;2023-02-26T08:41:22;1.08;;;0.70;;
934;SDS011;454;53.254;10.400;2023-02-26T08:43:52;0.85;;;0.85;;
934;SDS011;454;53.254;10.400;2023-02-26T08:46:19;0.30;;;0.30;;
934;SDS011;454;53.254;10.400;2023-02-26T08:48:46;0.60;;;0.60;;
934;SDS011;454;53.254;10.400;2023-02-26T08:51:13;0.30;;;0.30;;
934;SDS011;454;53.254;10.400;2023-02-26T08:53:40;1.65;;;0.65;;
934;SDS011;454;53.254;10.400;2023-02-26T08:56:09;1.60;;;0.95;;
934;SDS011;454;53.254;10.400;2023-02-26T08:58:36;0.20;;;0.20;;
934;SDS011;454;53.254;10.400;2023-02-26T09:01:04;0.10;;;0.10;;
934;SDS011;454;53.254;10.400;2023-02-26T09:03:34;0.10;;;0.10;;
934;SDS011;454;53.254;10.400;2023-02-26T09:06:02;2.25;;;0.95;;
934;SDS011;454;53.254;10.400;2023-02-26T09:08:31;0.20;;;0.20;;
934;SDS011;454;53.254;10.400;2023-02-26T09:10:59;0.32;;;0.32;;
934;SDS011;454;53.254;10.400;2023-02-26T09:13:30;0.40;;;0.40;;
934;SDS011;454;53.254;10.400;2023-02-26T09:16:00;0.30;;;0.30;;
934;SDS011;454;53.254;10.400;2023-02-26T09:18:32;0.40;;;0.40;;
934;SDS011;454;53.254;10.400;2023-02-26T09:21:00;0.30;;;0.30;;
934;SDS011;454;53.254;10.400;2023-02-26T09:23:31;0.20;;;0.20;;
934;SDS011;454;53.254;10.400;2023-02-26T09:26:01;1.58;;;0.73;;
934;SDS011;454;53.254;10.400;2023-02-26T09:28:33;0.57;;;0.57;;
934;SDS011;454;53.254;10.400;2023-02-26T09:31:01;0.10;;;0.10;;
934;SDS011;454;53.254;10.400;2023-02-26T09:33:28;0.20;;;0.20;;
934;SDS011;454;53.254;10.400;2023-02-26T09:35:57;0.20;;;0.20;;
934;SDS011;454;53.254;10.400;2023-02-26T09:38:27;0.45;;;0.45;;
934;SDS011;454;53.254;10.400;2023-02-26T09:41:06;0.52;;;0.30;;
934;SDS011;454;53.254;10.400;2023-02-26T09:46:50;0.55;;;0.55;;
934;SDS011;454;53.254;10.400;2023-02-26T09:49:33;0.10;;;0.10;;
934;SDS011;454;53.254;10.400;2023-02-26T09:52:23;0.10;;;0.10;;
934;SDS011;454;53.254;10.400;2023-02-26T09:54:59;0.73;;;0.73;;
934;SDS011;454;53.254;10.400;2023-02-26T09:57:42;0.20;;;0.20;;
934;SDS011;454;53.254;10.400;2023-02-26T10:00:24;0.22;;;0.22;;
934;SDS011;454;53.254;10.400;2023-02-26T10:03:08;2.55;;;0.52;;
934;SDS011;454;53.254;10.400;2023-02-26T10:09:15;2.83;;;0.80;;
934;SDS011;454;53.254;10.400;2023-02-26T10:12:09;0.22;;;0.22;;
934;SDS011;454;53.254;10.400;2023-02-26T10:14:46;0.43;;;0.43;;
934;SDS011;454;53.254;10.400;2023-02-26T10:17:39;0.20;;;0.20;;
934;SDS011;454;53.254;10.400;2023-02-26T10:20:30;0.10;;;0.10;;
934;SDS011;454;53.254;10.400;2023-02-26T10:23:05;0.20;;;0.20;;
934;SDS011;454;53.254;10.400;2023-02-26T10:25:51;0.20;;;0.20;;
934;SDS011;454;53.254;10.400;2023-02-26T10:28:32;0.75;;;0.75;;
934;SDS011;454;53.254;10.400;2023-02-26T10:31:10;0.73;;;0.30;;
934;SDS011;454;53.254;10.400;2023-02-26T10:33:46;0.30;;;0.30;;
934;SDS011;454;53.254;10.400;2023-02-26T10:36:21;0.17;;;0.17;;
934;SDS011;454;53.254;10.400;2023-02-26T10:38:57;0.45;;;0.45;;
934;SDS011;454;53.254;10.400;2023-02-26T10:41:32;0.20;;;0.20;;
934;SDS011;454;53.254;10.400;2023-02-26T10:44:08;0.10;;;0.10;;
934;SDS011;454;53.254;10.400;2023-02-26T10:46:42;0.30;;;0.30;;
934;SDS011;454;53.254;10.400;2023-02-26T10:49:28;0.95;;;0.95;;
934;SDS011;454;53.254;10.400;2023-02-26T10:52:12;0.20;;;0.20;;
934;SDS011;454;53.254;10.400;2023-02-26T10:54:44;0.20;;;0.20;;
934;SDS011;454;53.254;10.400;2023-02-26T10:57:33;0.10;;;0.10;;
934;SDS011;454;53.254;10.400;2023-02-26T11:00:06;0.40;;;0.40;;
934;SDS011;454;53.254;10.400;2023-02-26T11:02:43;0.30;;;0.30;;
934;SDS011;454;53.254;10.400;2023-02-26T11:05:14;0.22;;;0.22;;
934;SDS011;454;53.254;10.400;2023-02-26T11:07:44;0.20;;;0.20;;
934;SDS011;454;53.254;10.400;2023-02-26T11:10:27;0.50;;;0.25;;
934;SDS011;454;53.254;10.400;2023-02-26T11:13:05;0.10;;;0.10;;
934;SDS011;454;53.254;10.400;2023-02-26T11:15:37;0.40;;;0.40;;
934;SDS011;454;53.254;10.400;2023-02-26T11:18:05;0.40;;;0.30;;
934;SDS011;454;53.254;10.400;2023-02-26T11:20:42;0.20;;;0.20;;
934;SDS011;454;53.254;10.400;2023-02-26T11:23:11;1.38;;;0.45;;
934;SDS011;454;53.254;10.400;2023-02-26T11:25:44;17.45;;;1.60;;
934;SDS011;454;53.254;10.400;2023-02-26T11:28:21;0.63;;;0.63;;
934;SDS011;454;53.254;10.400;2023-02-26T11:31:02;0.20;;;0.20;;
934;SDS011;454;53.254;10.400;2023-02-26T11:33:37;0.50;;;0.50;;
934;SDS011;454;53.254;10.400;2023-02-26T11:36:12;0.50;;;0.50;;
934;SDS011;454;53.254;10.400;2023-02-26T11:38:43;0.63;;;0.63;;
934;SDS011;454;53.254;10.400;2023-02-26T11:41:12;0.20;;;0.20;;
934;SDS011;454;53.254;10.400;2023-02-26T11:43:47;0.32;;;0.32;;
934;SDS011;454;53.254;10.400;2023-02-26T11:46:22;0.57;;;0.57;;
934;SDS011;454;53.254;10.400;2023-02-26T11:49:02;0.30;;;0.30;;
934;SDS011;454;53.254;10.400;2023-02-26T11:51:33;4.15;;;0.50;;
934;SDS011;454;53.254;10.400;2023-02-26T11:54:10;0.20;;;0.20;;
934;SDS011;454;53.254;10.400;2023-02-26T11:57:02;0.10;;;0.10;;
934;SDS011;454;53.254;10.400;2023-02-26T11:59:46;0.20;;;0.20;;
934;SDS011;454;53.254;10.400;2023-02-26T12:02:26;0.10;;;0.10;;
934;SDS011;454;53.254;10.400;2023-02-26T12:04:59;0.10;;;0.10;;
934;SDS011;454;53.254;10.400;2023-02-26T12:07:33;0.98;;;0.63;;
934;SDS011;454;53.254;10.400;2023-02-26T12:10:12;0.30;;;0.30;;
934;SDS011;454;53.254;10.400;2023-02-26T12:12:53;0.32;;;0.32;;
934;SDS011;454;53.254;10.400;2023-02-26T12:15:31;0.95;;;0.95;;
934;SDS011;454;53.254;10.400;2023-02-26T12:18:14;2.45;;;0.68;;
934;SDS011;454;53.254;10.400;2023-02-26T12:21:05;0.20;;;0.20;;
934;SDS011;454;53.254;10.400;2023-02-26T12:26:53;0.20;;;0.20;;
934;SDS011;454;53.254;10.400;2023-02-26T12:29:40;1.85;;;0.43;;
934;SDS011;454;53.254;10.400;2023-02-26T12:32:34;0.10;;;0.10;;
934;SDS011;454;53.254;10.400;2023-02-26T12:41:05;0.43;;;0.43;;
934;SDS011;454;53.254;10.400;2023-02-26T12:43:52;1.20;;;0.38;;
934;SDS011;454;53.254;10.400;2023-02-26T12:46:25;0.50;;;0.30;;
934;SDS011;454;53.254;10.400;2023-02-26T12:49:18;0.65;;;0.65;;
934;SDS011;454;53.254;10.400;2023-02-26T12:52:18;2.75;;;1.75;;
934;SDS011;454;53.254;10.400;2023-02-26T12:55:13;1.42;;;1.42;;
934;SDS011;454;53.254;10.400;2023-02-26T12:57:56;0.32;;;0.32;;
934;SDS011;454;53.254;10.400;2023-02-26T13:09:57;0.20;;;0.20;;
934;SDS011;454;53.254;10.400;2023-02-26T13:12:32;0.73;;;0.40;;
934;SDS011;454;53.254;10.400;2023-02-26T13:15:20;0.20;;;0.20;;
934;SDS011;454;53.254;10.400;2023-02-26T13:18:03;0.10;;;0.10;;
934;SDS011;454;53.254;10.400;2023-02-26T13:20:40;0.10;;;0.10;;
934;SDS011;454;53.254;10.400;2023-02-26T13:23:21;0.10;;;0.10;;
934;SDS011;454;53.254;10.400;2023-02-26T13:25:52;3.05;;;2.38;;
934;SDS011;454;53.254;10.400;2023-02-26T13:28:23;0.32;;;0.32;;
934;SDS011;454;53.254;10.400;2023-02-26T13:31:03;0.30;;;0.30;;
934;SDS011;454;53.254;10.400;2023-02-26T13:33:33;2.90;;;0.60;;
934;SDS011;454;53.254;10.400;2023-02-26T13:36:01;0.10;;;0.10;;
934;SDS011;454;53.254;10.400;2023-02-26T13:38:33;1.75;;;1.65;;
934;SDS011;454;53.254;10.400;2023-02-26T13:41:09;0.60;;;0.60;;
934;SDS011;454;53.254;10.400;2023-02-26T13:43:44;0.20;;;0.20;;
934;SDS011;454;53.254;10.400;2023-02-26T13:46:22;0.20;;;0.20;;
934;SDS011;454;53.254;10.400;2023-02-26T13:48:59;0.20;;;0.20;;
934;SDS011;454;53.254;10.400;2023-02-26T13:51:33;0.10;;;0.10;;
934;SDS011;454;53.254;10.400;2023-02-26T13:54:07;0.40;;;0.40;;
934;SDS011;454;53.254;10.400;2023-02-26T13:56:58;1.50;;;0.30;;
934;SDS011;454;53.254;10.400;2023-02-26T13:59:36;0.82;;;0.38;;
934;SDS011;454;53.254;10.400;2023-02-26T14:05:27;0.20;;;0.20;;
934;SDS011;454;53.254;10.400;2023-02-26T14:08:07;0.25;;;0.25;;
934;SDS011;454;53.254;10.400;2023-02-26T14:10:45;1.27;;;0.65;;
934;SDS011;454;53.254;10.400;2023-02-26T14:13:21;0.35;;;0.35;;
934;SDS011;454;53.254;10.400;2023-02-26T14:15:52;0.50;;;0.50;;
934;SDS011;454;53.254;10.400;2023-02-26T14:18:29;0.63;;;0.63;;
934;SDS011;454;53.254;10.400;2023-02-26T14:24:00;0.65;;;0.25;;
934;SDS011;454;53.254;10.400;2023-02-26T14:26:31;0.40;;;0.40;;
934;SDS011;454;53.254;10.400;2023-02-26T14:29:07;0.45;;;0.45;;
934;SDS011;454;53.254;10.400;2023-02-26T14:31:50;0.30;;;0.30;;
934;SDS011;454;53.254;10.400;2023-02-26T14:34:40;0.20;;;0.20;;
934;SDS011;454;53.254;10.400;2023-02-26T14:37:14;0.57;;;0.57;;
934;SDS011;454;53.254;10.400;2023-02-26T14:39:46;0.50;;;0.50;;
934;SDS011;454;53.254;10.400;2023-02-26T14:42:17;0.30;;;0.30;;
934;SDS011;454;53.254;10.400;2023-02-26T14:44:50;2.83;;;1.05;;
934;SDS011;454;53.254;10.400;2023-02-26T14:47:31;0.30;;;0.30;;
934;SDS011;454;53.254;10.400;2023-02-26T14:49:57;0.38;;;0.38;;
934;SDS011;454;53.254;10.400;2023-02-26T14:52:34;0.30;;;0.30;;
934;SDS011;454;53.254;10.400;2023-02-26T14:58:38;0.52;;;0.43;;
934;SDS011;454;53.254;10.400;2023-02-26T15:01:39;0.20;;;0.20;;
934;SDS011;454;53.254;10.400;2023-02-26T15:04:15;0.10;;;0.10;;
934;SDS011;454;53.254;10.400;2023-02-26T15:07:02;1.20;;;0.30;;
934;SDS011;454;53.254;10.400;2023-02-26T15:09:43;0.30;;;0.30;;
934;SDS011;454;53.254;10.400;2023-02-26T15:12:25;5.80;;;1.25;;
934;SDS011;454;53.254;10.400;2023-02-26T15:15:11;0.10;;;0.10;;
934;SDS011;454;53.254;10.400;2023-02-26T15:17:57;0.20;;;0.20;;
934;SDS011;454;53.254;10.400;2023-02-26T15:20:36;0.82;;;0.82;;
934;SDS011;454;53.254;10.400;2023-02-26T15:23:12;0.55;;;0.55;;
934;SDS011;454;53.254;10.400;2023-02-26T15:25:48;0.30;;;0.30;;
934;SDS011;454;53.254;10.400;2023-02-26T15:28:26;0.30;;;0.30;;
934;SDS011;454;53.254;10.400;2023-02-26T15:30:55;0.60;;;0.60;;
934;SDS011;454;53.254;10.400;2023-02-26T15:33:24;0.90;;;0.90;;
934;SDS011;454;53.254;10.400;2023-02-26T15:35:51;0.40;;;0.30;;
934;SDS011;454;53.254;10.400;2023-02-26T15:38:20;0.70;;;0.70;;
934;SDS011;454;53.254;10.400;2023-02-26T15:40:47;0.30;;;0.30;;
934;SDS011;454;53.254;10.400;2023-02-26T15:43:20;0.30;;;0.30;;
934;SDS011;454;53.254;10.400;2023-02-26T15:45:50;0.68;;;0.47;;
934;SDS011;454;53.254;10.400;2023-02-26T15:48:21;1.75;;;1.02;;
934;SDS011;454;53.254;10.400;2023-02-26T15:50:53;0.55;;;0.47;;
934;SDS011;454;53.254;10.400;2023-02-26T15:53:25;0.70;;;0.70;;
934;SDS011;454;53.254;10.400;2023-02-26T15:55:55;2.10;;;0.43;;
934;SDS011;454;53.254;10.400;2023-02-26T15:58:29;0.30;;;0.30;;
934;SDS011;454;53.254;10.400;2023-02-26T16:01:00;0.50;;;0.32;;
934;SDS011;454;53.254;10.400;2023-02-26T16:03:30;0.88;;;0.88;;
934;SDS011;454;53.254;10.400;2023-02-26T16:06:00;1.00;;;1.00;;
934;SDS011;454;53.254;10.400;2023-02-26T16:08:27;0.40;;;0.40;;
934;SDS011;454;53.254;10.400;2023-02-26T16:10:55;1.88;;;0.75;;
934;SDS011;454;53.254;10.400;2023-02-26T16:13:25;0.57;;;0.57;;
934;SDS011;454;53.254;10.400;2023-02-26T16:15:57;0.20;;;0.20;;
934;SDS011;454;53.254;10.400;2023-02-26T16:18:26;0.95;;;0.95;;
934;SDS011;454;53.254;10.400;2023-02-26T16:20:57;0.20;;;0.20;;
934;SDS011;454;53.254;10.400;2023-02-26T16:23:27;0.20;;;0.20;;
934;SDS011;454;53.254;10.400;2023-02-26T16:26:03;1.70;;;1.60;;
934;SDS011;454;53.254;10.400;2023-02-26T16:28:33;0.30;;;0.30;;
934;SDS011;454;53.254;10.400;2023-02-26T16:31:11;0.55;;;0.55;;
934;SDS011;454;53.254;10.400;2023-02-26T16:33:41;0.52;;;0.52;;
934;SDS011;454;53.254;10.400;2023-02-26T16:36:19;0.30;;;0.30;;
934;SDS011;454;53.254;10.400;2023-02-26T16:38:51;0.10;;;0.10;;
934;SDS011;454;53.254;10.400;2023-02-26T16:41:24;0.20;;;0.20;;
934;SDS011;454;53.254;10.400;2023-02-26T16:43:54;1.27;;;1.02;;
934;SDS011;454;53.254;10.400;2023-02-26T16:46:27;1.70;;;1.60;;
934;SDS011;454;53.254;10.400;2023-02-26T16:49:00;1.67;;;1.67;;
934;SDS011;454;53.254;10.400;2023-02-26T16:51:31;4.95;;;1.83;;
934;SDS011;454;53.254;10.400;2023-02-26T16:54:03;0.47;;;0.47;;
934;SDS011;454;53.254;10.400;2023-02-26T16:56:33;3.60;;;3.50;;
934;SDS011;454;53.254;10.400;2023-02-26T16:59:05;3.72;;;3.47;;
934;SDS011;454;53.254;10.400;2023-02-26T17:01:36;1.77;;;1.58;;
934;SDS011;454;53.254;10.400;2023-02-26T17:04:05;1.65;;;1.58;;
934;SDS011;454;53.254;10.400;2023-02-26T17:06:36;0.50;;;0.50;;
934;SDS011;454;53.254;10.400;2023-02-26T17:09:05;5.97;;;1.17;;
934;SDS011;454;53.254;10.400;2023-02-26T17:11:36;0.63;;;0.63;;
934;SDS011;454;53.254;10.400;2023-02-26T17:14:09;1.65;;;0.80;;
934;SDS011;454;53.254;10.400;2023-02-26T17:16:43;6.28;;;3.88;;
934;SDS011;454;53.254;10.400;2023-02-26T17:19:10;1.30;;;1.20;;
934;SDS011;454;53.254;10.400;2023-02-26T17:21:40;0.50;;;0.50;;
934;SDS011;454;53.254;10.400;2023-02-26T17:24:09;1.40;;;1.40;;
934;SDS011;454;53.254;10.400;2023-02-26T17:26:41;1.30;;;1.30;;
934;SDS011;454;53.254;10.400;2023-02-26T17:29:08;0.77;;;0.57;;
934;SDS011;454;53.254;10.400;2023-02-26T17:31:44;1.90;;;1.75;;
934;SDS011;454;53.254;10.400;2023-02-26T17:34:11;0.52;;;0.52;;
934;SDS011;454;53.254;10.400;2023-02-26T17:36:39;0.50;;;0.50;;
934;SDS011;454;53.254;10.400;2023-02-26T17:39:06;1.90;;;1.80;;
934;SDS011;454;53.254;10.400;2023-02-26T17:41:35;2.75;;;1.40;;
934;SDS011;454;53.254;10.400;2023-02-26T17:44:01;0.50;;;0.50;;
934;SDS011;454;53.254;10.400;2023-02-26T17:46:28;0.45;;;0.45;;
934;SDS011;454;53.254;10.400;2023-02-26T17:48:56;1.10;;;1.10;;
934;SDS011;454;53.254;10.400;2023-02-26T17:51:23;0.50;;;0.50;;
934;SDS011;454;53.254;10.400;2023-02-26T17:53:52;0.98;;;0.98;;
934;SDS011;454;53.254;10.400;2023-02-26T17:56:20;1.52;;;1.33;;
934;SDS011;454;53.254;10.400;2023-02-26T17:58:50;4.57;;;2.78;;
934;SDS011;454;53.254;10.400;2023-02-26T18:01:18;1.08;;;0.98;;
934;SDS011;454;53.254;10.400;2023-02-26T18:03:47;2.85;;;2.65;;
934;SDS011;454;53.254;10.400;2023-02-26T18:06:14;3.47;;;3.30;;
934;SDS011;454;53.254;10.400;2023-02-26T18:08:42;5.68;;;2.97;;
934;SDS011;454;53.254;10.400;2023-02-26T18:11:16;3.28;;;3.00;;
934;SDS011;454;53.254;10.400;2023-02-26T18:13:44;3.95;;;3.65;;
934;SDS011;454;53.254;10.400;2023-02-26T18:16:11;8.60;;;2.90;;
934;SDS011;454;53.254;10.400;2023-02-26T18:18:42;14.63;;;4.82;;
934;SDS011;454;53.254;10.400;2023-02-26T18:21:09;2.53;;;2.40;;
934;SDS011;454;53.254;10.400;2023-02-26T18:23:37;2.17;;;2.05;;
934;SDS011;454;53.254;10.400;2023-02-26T18:26:04;1.98;;;1.98;;
934;SDS011;454;53.254;10.400;2023-02-26T18:28:32;2.50;;;2.30;;
934;SDS011;454;53.254;10.400;2023-02-26T18:30:59;4.90;;;4.47;;
934;SDS011;454;53.254;10.400;2023-02-26T18:33:26;6.18;;;3.55;;
934;SDS011;454;53.254;10.400;2023-02-26T18:35:54;5.70;;;5.30;;
934;SDS011;454;53.254;10.400;2023-02-26T18:38:24;2.65;;;2.45;;
934;SDS011;454;53.254;10.400;2023-02-26T18:40:53;3.58;;;3.33;;
934;SDS011;454;53.254;10.400;2023-02-26T18:43:20;3.58;;;3.40;;
934;SDS011;454;53.254;10.400;2023-02-26T18:45:49;3.83;;;3.20;;
934;SDS011;454;53.254;10.400;2023-02-26T18:48:17;7.15;;;3.63;;
934;SDS011;454;53.254;10.400;2023-02-26T18:50:45;5.78;;;3.30;;
934;SDS011;454;53.254;10.400;2023-02-26T18:53:13;1.92;;;1.83;;
934;SDS011;454;53.254;10.400;2023-02-26T18:55:41;3.38;;;3.08;;
934;SDS011;454;53.254;10.400;2023-02-26T18:58:08;4.05;;;3.33;;
934;SDS011;454;53.254;10.400;2023-02-26T19:00:35;6.95;;;2.55;;
934;SDS011;454;53.254;10.400;2023-02-26T19:03:03;5.00;;;4.18;;
934;SDS011;454;53.254;10.400;2023-02-26T19:05:30;9.57;;;3.70;;
934;SDS011;454;53.254;10.400;2023-02-26T19:07:57;3.45;;;3.22;;
934;SDS011;454;53.254;10.400;2023-02-26T19:10:25;5.57;;;4.80;;
934;SDS011;454;53.254;10.400;2023-02-26T19:12:53;2.67;;;2.47;;
934;SDS011;454;53.254;10.400;2023-02-26T19:15:20;3.05;;;2.95;;
934;SDS011;454;53.254;10.400;2023-02-26T19:17:47;3.15;;;2.13;;
934;SDS011;454;53.254;10.400;2023-02-26T19:22:43;7.05;;;3.58;;
934;SDS011;454;53.254;10.400;2023-02-26T19:25:11;1.73;;;1.63;;
934;SDS011;454;53.254;10.400;2023-02-26T19:27:38;2.67;;;2.47;;
934;SDS011;454;53.254;10.400;2023-02-26T19:30:05;3.72;;;3.38;;
934;SDS011;454;53.254;10.400;2023-02-26T19:32:33;3.70;;;3.40;;
934;SDS011;454;53.254;10.400;2023-02-26T19:34:59;2.13;;;2.03;;
934;SDS011;454;53.254;10.400;2023-02-26T19:37:28;5.97;;;3.50;;
934;SDS011;454;53.254;10.400;2023-02-26T19:39:54;5.97;;;5.78;;
934;SDS011;454;53.254;10.400;2023-02-26T19:42:21;5.65;;;5.35;;
934;SDS011;454;53.254;10.400;2023-02-26T19:44:48;4.30;;;2.75;;
934;SDS011;454;53.254;10.400;2023-02-26T19:47:15;4.15;;;3.55;;
934;SDS011;454;53.254;10.400;2023-02-26T19:49:42;4.18;;;3.85;;
934;SDS011;454;53.254;10.400;2023-02-26T19:52:08;4.68;;;4.30;;
934;SDS011;454;53.254;10.400;2023-02-26T19:54:37;3.00;;;2.90;;
934;SDS011;454;53.254;10.400;2023-02-26T19:57:04;10.00;;;2.30;;
934;SDS011;454;53.254;10.400;2023-02-26T19:59:30;3.28;;;3.08;;
934;SDS011;454;53.254;10.400;2023-02-26T20:01:57;2.95;;;2.80;;
934;SDS011;454;53.254;10.400;2023-02-26T20:04:24;10.60;;;7.35;;
934;SDS011;454;53.254;10.400;2023-02-26T20:06:51;11.60;;;5.40;;
934;SDS011;454;53.254;10.400;2023-02-26T20:09:17;11.02;;;7.22;;
934;SDS011;454;53.254;10.400;2023-02-26T20:11:46;4.75;;;4.43;;
934;SDS011;454;53.254;10.400;2023-02-26T20:14:12;6.07;;;5.60;;
934;SDS011;454;53.254;10.400;2023-02-26T20:16:39;3.42;;;2.28;;
934;SDS011;454;53.254;10.400;2023-02-26T20:19:06;8.05;;;5.18;;
934;SDS011;454;53.254;10.400;2023-02-26T20:21:33;1.88;;;1.88;;
934;SDS011;454;53.254;10.400;2023-02-26T20:24:00;9.15;;;3.17;;
934;SDS011;454;53.254;10.400;2023-02-26T20:26:27;4.70;;;3.80;;
934;SDS011;454;53.254;10.400;2023-02-26T20:28:55;8.07;;;4.10;;
934;SDS011;454;53.254;10.400;2023-02-26T20:31:22;17.65;;;6.22;;
934;SDS011;454;53.254;10.400;2023-02-26T20:33:49;7.18;;;5.70;;
934;SDS011;454;53.254;10.400;2023-02-26T20:36:16;28.48;;;10.57;;
934;SDS011;454;53.254;10.400;2023-02-26T20:38:44;16.23;;;10.10;;
934;SDS011;454;53.254;10.400;2023-02-26T20:41:11;12.00;;;7.60;;
934;SDS011;454;53.254;10.400;2023-02-26T20:43:38;12.70;;;4.72;;
934;SDS011;454;53.254;10.400;2023-02-26T20:46:06;5.13;;;3.90;;
934;SDS011;454;53.254;10.400;2023-02-26T20:48:33;3.67;;;3.38;;
934;SDS011;454;53.254;10.400;2023-02-26T20:51:04;22.77;;;7.32;;
934;SDS011;454;53.254;10.400;2023-02-26T20:53:31;6.68;;;6.28;;
934;SDS011;454;53.254;10.400;2023-02-26T20:55:58;7.03;;;4.05;;
934;SDS011;454;53.254;10.400;2023-02-26T20:58:25;4.57;;;4.35;;
934;SDS011;454;53.254;10.400;2023-02-26T21:00:53;2.55;;;2.40;;
934;SDS011;454;53.254;10.400;2023-02-26T21:03:22;5.45;;;4.55;;
934;SDS011;454;53.254;10.400;2023-02-26T21:05:49;2.25;;;2.25;;
934;SDS011;454;53.254;10.400;2023-02-26T21:08:16;2.85;;;2.63;;
934;SDS011;454;53.254;10.400;2023-02-26T21:10:43;8.73;;;4.10;;
934;SDS011;454;53.254;10.400;2023-02-26T21:13:09;4.78;;;3.25;;
934;SDS011;454;53.254;10.400;2023-02-26T21:15:36;4.20;;;3.88;;
934;SDS011;454;53.254;10.400;2023-02-26T21:18:03;7.10;;;4.05;;
934;SDS011;454;53.254;10.400;2023-02-26T21:20:31;13.57;;;4.28;;
934;SDS011;454;53.254;10.400;2023-02-26T21:22:58;3.55;;;3.30;;
934;SDS011;454;53.254;10.400;2023-02-26T21:25:25;7.07;;;6.32;;
934;SDS011;454;53.254;10.400;2023-02-26T21:27:55;16.40;;;6.93;;
934;SDS011;454;53.254;10.400;2023-02-26T21:30:22;9.77;;;8.27;;
934;SDS011;454;53.254;10.400;2023-02-26T21:32:49;5.43;;;4.80;;
934;SDS011;454;53.254;10.400;2023-02-26T21:35:16;5.40;;;3.08;;